sensor_id;sensor_type;location;lat;lon;timestamp;pressure;altitude;pressure_sealevel;temperature;humidity
55490;BME280;44029;52.956;4.772;2022-12-24T00:01:59;100494.38;;;8.57;100.00
55490;BME280;44029;52.956;4.772;2022-12-24T00:04:24;100493.88;;;8.60;100.00
55490;BME280;44029;52.956;4.772;2022-12-24T00:06:50;100505.69;;;8.66;100.00
55490;BME280;44029;52.956;4.772;2022-12-24T00:09:15;100497.56;;;8.83;100.00
55490;BME280;44029;52.956;4.772;2022-12-24T00:11:41;100504.31;;;8.97;100.00
55490;BME280;44029;52.956;4.772;2022-12-24T00:14:06;100506.75;;;9.11;100.00
55490;BME280;44029;52.956;4.772;2022-12-24T00:16:31;100505.75;;;9.17;100.00
55490;BME280;44029;52.956;4.772;2022-12-24T00:18:57;100512.03;;;9.34;100.00
55490;BME280;44029;52.956;4.772;2022-12-24T00:21:22;100519.56;;;9.44;100.00
55490;BME280;44029;52.956;4.772;2022-12-24T00:23:47;100511.66;;;9.47;100.00
55490;BME280;44029;52.956;4.772;2022-12-24T00:26:13;100507.38;;;9.52;100.00
55490;BME280;44029;52.956;4.772;2022-12-24T00:28:39;100520.53;;;9.55;100.00
55490;BME280;44029;52.956;4.772;2022-12-24T00:31:12;100522.59;;;9.64;100.00
55490;BME280;44029;52.956;4.772;2022-12-24T00:33:38;100523.41;;;9.65;100.00
55490;BME280;44029;52.956;4.772;2022-12-24T00:36:04;100525.06;;;9.66;100.00
55490;BME280;44029;52.956;4.772;2022-12-24T00:38:29;100532.19;;;9.67;100.00
55490;BME280;44029;52.956;4.772;2022-12-24T00:40:59;100522.97;;;9.73;100.00
55490;BME280;44029;52.956;4.772;2022-12-24T00:43:25;100521.59;;;9.71;100.00
55490;BME280;44029;52.956;4.772;2022-12-24T00:45:50;100530.22;;;9.84;100.00
55490;BME280;44029;52.956;4.772;2022-12-24T00:48:16;100525.53;;;9.80;100.00
55490;BME280;44029;52.956;4.772;2022-12-24T00:50:41;100531.25;;;9.78;100.00
55490;BME280;44029;52.956;4.772;2022-12-24T00:53:06;100526.94;;;9.82;100.00
55490;BME280;44029;52.956;4.772;2022-12-24T00:55:32;100537.94;;;9.87;100.00
55490;BME280;44029;52.956;4.772;2022-12-24T00:57:57;100553.88;;;9.91;100.00
55490;BME280;44029;52.956;4.772;2022-12-24T01:00:23;100549.72;;;9.88;100.00
55490;BME280;44029;52.956;4.772;2022-12-24T01:02:48;100556.69;;;9.96;100.00
55490;BME280;44029;52.956;4.772;2022-12-24T01:05:13;100556.28;;;9.87;100.00
55490;BME280;44029;52.956;4.772;2022-12-24T01:07:43;100559.25;;;9.85;100.00
55490;BME280;44029;52.956;4.772;2022-12-24T01:10:10;100556.97;;;9.77;100.00
55490;BME280;44029;52.956;4.772;2022-12-24T01:12:36;100569.19;;;9.92;100.00
55490;BME280;44029;52.956;4.772;2022-12-24T01:15:02;100571.44;;;9.95;100.00
55490;BME280;44029;52.956;4.772;2022-12-24T01:17:30;100574.16;;;9.95;100.00
55490;BME280;44029;52.956;4.772;2022-12-24T01:19:56;100577.91;;;9.89;100.00
55490;BME280;44029;52.956;4.772;2022-12-24T01:22:21;100579.88;;;9.93;100.00
55490;BME280;44029;52.956;4.772;2022-12-24T01:24:47;100586.78;;;9.96;100.00
55490;BME280;44029;52.956;4.772;2022-12-24T01:27:12;100580.53;;;10.00;100.00
55490;BME280;44029;52.956;4.772;2022-12-24T01:29:37;100589.81;;;9.99;100.00
55490;BME280;44029;52.956;4.772;2022-12-24T01:32:03;100605.28;;;9.89;100.00
55490;BME280;44029;52.956;4.772;2022-12-24T01:34:29;100606.59;;;9.86;100.00
55490;BME280;44029;52.956;4.772;2022-12-24T01:36:54;100605.44;;;9.82;100.00
55490;BME280;44029;52.956;4.772;2022-12-24T01:39:20;100604.53;;;9.76;100.00
55490;BME280;44029;52.956;4.772;2022-12-24T01:41:45;100603.28;;;9.84;100.00
55490;BME280;44029;52.956;4.772;2022-12-24T01:44:34;100598.72;;;9.90;100.00
55490;BME280;44029;52.956;4.772;2022-12-24T01:47:26;100593.31;;;9.95;100.00
55490;BME280;44029;52.956;4.772;2022-12-24T01:49:56;100597.56;;;9.85;100.00
55490;BME280;44029;52.956;4.772;2022-12-24T01:52:26;100603.78;;;9.98;100.00
55490;BME280;44029;52.956;4.772;2022-12-24T01:54:57;100597.03;;;10.05;100.00
55490;BME280;44029;52.956;4.772;2022-12-24T01:57:27;100605.56;;;10.09;100.00
55490;BME280;44029;52.956;4.772;2022-12-24T01:59:56;100596.13;;;10.00;100.00
55490;BME280;44029;52.956;4.772;2022-12-24T02:02:23;100613.13;;;10.02;100.00
55490;BME280;44029;52.956;4.772;2022-12-24T02:04:56;100621.03;;;10.20;100.00
55490;BME280;44029;52.956;4.772;2022-12-24T02:07:23;100623.06;;;10.08;100.00
55490;BME280;44029;52.956;4.772;2022-12-24T02:09:53;100616.84;;;10.13;100.00
55490;BME280;44029;52.956;4.772;2022-12-24T02:12:20;100618.09;;;10.05;100.00
55490;BME280;44029;52.956;4.772;2022-12-24T02:14:45;100622.47;;;10.06;100.00
55490;BME280;44029;52.956;4.772;2022-12-24T02:17:39;100622.56;;;10.11;100.00
55490;BME280;44029;52.956;4.772;2022-12-24T02:25:29;100631.59;;;10.12;100.00
55490;BME280;44029;52.956;4.772;2022-12-24T02:30:41;100647.19;;;10.11;100.00
55490;BME280;44029;52.956;4.772;2022-12-24T02:33:15;100654.13;;;10.19;100.00
55490;BME280;44029;52.956;4.772;2022-12-24T02:41:01;100658.56;;;10.03;100.00
55490;BME280;44029;52.956;4.772;2022-12-24T02:43:33;100669.00;;;10.06;100.00
55490;BME280;44029;52.956;4.772;2022-12-24T02:46:12;100675.75;;;9.98;100.00
55490;BME280;44029;52.956;4.772;2022-12-24T02:48:41;100681.13;;;9.93;100.00
55490;BME280;44029;52.956;4.772;2022-12-24T02:51:09;100689.34;;;9.93;100.00
55490;BME280;44029;52.956;4.772;2022-12-24T02:53:35;100693.47;;;9.79;100.00
55490;BME280;44029;52.956;4.772;2022-12-24T03:04:11;100702.25;;;9.64;100.00
55490;BME280;44029;52.956;4.772;2022-12-24T03:07:05;100711.22;;;9.59;100.00
55490;BME280;44029;52.956;4.772;2022-12-24T03:12:58;100719.19;;;9.61;100.00
55490;BME280;44029;52.956;4.772;2022-12-24T03:15:26;100720.59;;;9.63;100.00
55490;BME280;44029;52.956;4.772;2022-12-24T03:17:53;100727.06;;;9.57;100.00
55490;BME280;44029;52.956;4.772;2022-12-24T03:20:43;100726.16;;;9.68;100.00
55490;BME280;44029;52.956;4.772;2022-12-24T03:23:09;100729.47;;;9.71;100.00
55490;BME280;44029;52.956;4.772;2022-12-24T03:25:39;100735.44;;;9.84;100.00
55490;BME280;44029;52.956;4.772;2022-12-24T03:28:06;100730.81;;;9.85;100.00
55490;BME280;44029;52.956;4.772;2022-12-24T03:30:33;100742.09;;;9.89;100.00
55490;BME280;44029;52.956;4.772;2022-12-24T03:32:59;100736.78;;;9.82;100.00
55490;BME280;44029;52.956;4.772;2022-12-24T03:35:24;100743.25;;;9.93;100.00
55490;BME280;44029;52.956;4.772;2022-12-24T03:37:50;100742.81;;;10.01;100.00
55490;BME280;44029;52.956;4.772;2022-12-24T03:40:16;100740.66;;;10.03;100.00
55490;BME280;44029;52.956;4.772;2022-12-24T03:42:41;100744.97;;;9.99;100.00
55490;BME280;44029;52.956;4.772;2022-12-24T03:45:07;100748.72;;;9.93;100.00
55490;BME280;44029;52.956;4.772;2022-12-24T03:47:33;100741.41;;;9.81;100.00
55490;BME280;44029;52.956;4.772;2022-12-24T03:49:58;100744.50;;;9.85;100.00
55490;BME280;44029;52.956;4.772;2022-12-24T03:52:23;100740.84;;;9.79;100.00
55490;BME280;44029;52.956;4.772;2022-12-24T03:54:49;100751.53;;;9.98;100.00
55490;BME280;44029;52.956;4.772;2022-12-24T03:57:14;100747.63;;;9.94;100.00
55490;BME280;44029;52.956;4.772;2022-12-24T03:59:39;100750.88;;;9.91;100.00
55490;BME280;44029;52.956;4.772;2022-12-24T04:02:05;100755.25;;;9.92;100.00
55490;BME280;44029;52.956;4.772;2022-12-24T04:04:30;100751.84;;;9.84;100.00
55490;BME280;44029;52.956;4.772;2022-12-24T04:06:58;100762.31;;;9.87;100.00
55490;BME280;44029;52.956;4.772;2022-12-24T04:09:23;100760.66;;;9.86;100.00
55490;BME280;44029;52.956;4.772;2022-12-24T04:11:48;100760.31;;;9.83;100.00
55490;BME280;44029;52.956;4.772;2022-12-24T04:14:14;100755.34;;;9.80;100.00
55490;BME280;44029;52.956;4.772;2022-12-24T04:16:39;100761.81;;;9.91;100.00
55490;BME280;44029;52.956;4.772;2022-12-24T04:19:04;100772.78;;;9.91;100.00
55490;BME280;44029;52.956;4.772;2022-12-24T04:21:29;100773.16;;;9.99;100.00
55490;BME280;44029;52.956;4.772;2022-12-24T04:23:55;100771.19;;;9.95;100.00
55490;BME280;44029;52.956;4.772;2022-12-24T04:26:20;100773.25;;;9.87;100.00
55490;BME280;44029;52.956;4.772;2022-12-24T04:28:46;100780.88;;;9.85;100.00
55490;BME280;44029;52.956;4.772;2022-12-24T04:31:14;100783.00;;;9.66;100.00
55490;BME280;44029;52.956;4.772;2022-12-24T04:33:40;100796.94;;;9.65;100.00
55490;BME280;44029;52.956;4.772;2022-12-24T04:36:06;100795.84;;;9.66;100.00
55490;BME280;44029;52.956;4.772;2022-12-24T04:38:32;100801.25;;;9.61;100.00
55490;BME280;44029;52.956;4.772;2022-12-24T04:41:04;100791.47;;;9.65;100.00
55490;BME280;44029;52.956;4.772;2022-12-24T04:43:30;100800.47;;;9.65;100.00
55490;BME280;44029;52.956;4.772;2022-12-24T04:46:03;100807.09;;;9.81;100.00
55490;BME280;44029;52.956;4.772;2022-12-24T04:48:28;100804.25;;;9.76;100.00
55490;BME280;44029;52.956;4.772;2022-12-24T04:50:54;100798.91;;;9.70;100.00
55490;BME280;44029;52.956;4.772;2022-12-24T04:53:19;100797.41;;;9.62;100.00
55490;BME280;44029;52.956;4.772;2022-12-24T04:55:45;100799.66;;;9.65;100.00
55490;BME280;44029;52.956;4.772;2022-12-24T04:58:11;100793.94;;;9.66;100.00
55490;BME280;44029;52.956;4.772;2022-12-24T05:00:38;100806.19;;;9.64;100.00
55490;BME280;44029;52.956;4.772;2022-12-24T05:03:04;100803.22;;;9.65;100.00
55490;BME280;44029;52.956;4.772;2022-12-24T05:05:29;100812.00;;;9.67;100.00
55490;BME280;44029;52.956;4.772;2022-12-24T05:07:54;100827.16;;;9.58;100.00
55490;BME280;44029;52.956;4.772;2022-12-24T05:10:20;100820.41;;;9.49;100.00
55490;BME280;44029;52.956;4.772;2022-12-24T05:12:46;100821.44;;;9.60;100.00
55490;BME280;44029;52.956;4.772;2022-12-24T05:15:11;100818.47;;;9.61;100.00
55490;BME280;44029;52.956;4.772;2022-12-24T05:17:37;100822.31;;;9.48;100.00
55490;BME280;44029;52.956;4.772;2022-12-24T05:20:02;100823.59;;;9.58;100.00
55490;BME280;44029;52.956;4.772;2022-12-24T05:22:28;100822.22;;;9.43;100.00
55490;BME280;44029;52.956;4.772;2022-12-24T05:25:11;100816.75;;;9.43;100.00
55490;BME280;44029;52.956;4.772;2022-12-24T05:27:55;100815.69;;;9.44;100.00
55490;BME280;44029;52.956;4.772;2022-12-24T05:30:21;100830.41;;;9.43;100.00
55490;BME280;44029;52.956;4.772;2022-12-24T05:32:46;100831.00;;;9.45;100.00
55490;BME280;44029;52.956;4.772;2022-12-24T05:35:11;100837.78;;;9.43;100.00
55490;BME280;44029;52.956;4.772;2022-12-24T05:37:38;100832.72;;;9.35;100.00
55490;BME280;44029;52.956;4.772;2022-12-24T05:40:03;100837.00;;;9.31;100.00
55490;BME280;44029;52.956;4.772;2022-12-24T05:42:29;100835.19;;;9.36;100.00
55490;BME280;44029;52.956;4.772;2022-12-24T05:44:54;100832.97;;;9.33;100.00
55490;BME280;44029;52.956;4.772;2022-12-24T05:47:20;100845.53;;;9.34;100.00
55490;BME280;44029;52.956;4.772;2022-12-24T05:49:45;100840.66;;;9.36;100.00
55490;BME280;44029;52.956;4.772;2022-12-24T05:52:10;100843.91;;;9.33;100.00
55490;BME280;44029;52.956;4.772;2022-12-24T05:54:36;100846.97;;;9.37;100.00
55490;BME280;44029;52.956;4.772;2022-12-24T05:57:01;100844.97;;;9.32;100.00
55490;BME280;44029;52.956;4.772;2022-12-24T05:59:27;100853.41;;;9.31;100.00
55490;BME280;44029;52.956;4.772;2022-12-24T06:01:53;100861.41;;;9.20;100.00
55490;BME280;44029;52.956;4.772;2022-12-24T06:04:18;100864.38;;;9.19;100.00
55490;BME280;44029;52.956;4.772;2022-12-24T06:06:43;100866.88;;;9.20;100.00
55490;BME280;44029;52.956;4.772;2022-12-24T06:09:09;100871.00;;;9.23;100.00
55490;BME280;44029;52.956;4.772;2022-12-24T06:11:34;100883.25;;;9.20;100.00
55490;BME280;44029;52.956;4.772;2022-12-24T06:13:59;100880.72;;;9.31;100.00
55490;BME280;44029;52.956;4.772;2022-12-24T06:16:25;100887.00;;;9.43;100.00
55490;BME280;44029;52.956;4.772;2022-12-24T06:18:51;100875.13;;;9.37;100.00
55490;BME280;44029;52.956;4.772;2022-12-24T06:21:17;100880.69;;;9.54;100.00
55490;BME280;44029;52.956;4.772;2022-12-24T06:23:44;100882.81;;;9.52;100.00
55490;BME280;44029;52.956;4.772;2022-12-24T06:26:15;100890.63;;;9.72;100.00
55490;BME280;44029;52.956;4.772;2022-12-24T06:28:43;100885.72;;;9.74;100.00
55490;BME280;44029;52.956;4.772;2022-12-24T06:31:12;100888.00;;;9.77;100.00
55490;BME280;44029;52.956;4.772;2022-12-24T06:33:38;100886.72;;;9.68;100.00
55490;BME280;44029;52.956;4.772;2022-12-24T06:36:09;100877.97;;;9.83;100.00
55490;BME280;44029;52.956;4.772;2022-12-24T06:38:34;100891.91;;;9.81;100.00
55490;BME280;44029;52.956;4.772;2022-12-24T06:41:04;100902.31;;;9.96;100.00
55490;BME280;44029;52.956;4.772;2022-12-24T06:43:30;100903.09;;;9.80;100.00
55490;BME280;44029;52.956;4.772;2022-12-24T06:45:59;100891.78;;;9.76;100.00
55490;BME280;44029;52.956;4.772;2022-12-24T06:48:24;100896.44;;;9.76;100.00
55490;BME280;44029;52.956;4.772;2022-12-24T06:50:49;100902.03;;;9.81;100.00
55490;BME280;44029;52.956;4.772;2022-12-24T06:53:15;100892.81;;;9.87;100.00
55490;BME280;44029;52.956;4.772;2022-12-24T06:55:40;100887.00;;;9.83;100.00
55490;BME280;44029;52.956;4.772;2022-12-24T06:58:05;100892.81;;;9.87;100.00
55490;BME280;44029;52.956;4.772;2022-12-24T07:00:31;100891.16;;;9.86;100.00
55490;BME280;44029;52.956;4.772;2022-12-24T07:02:56;100909.25;;;9.87;100.00
55490;BME280;44029;52.956;4.772;2022-12-24T07:05:21;100900.09;;;9.81;100.00
55490;BME280;44029;52.956;4.772;2022-12-24T07:07:47;100905.69;;;9.86;100.00
55490;BME280;44029;52.956;4.772;2022-12-24T07:10:18;100912.31;;;9.91;100.00
55490;BME280;44029;52.956;4.772;2022-12-24T07:12:44;100906.06;;;9.78;100.00
55490;BME280;44029;52.956;4.772;2022-12-24T07:15:10;100907.22;;;9.82;100.00
55490;BME280;44029;52.956;4.772;2022-12-24T07:17:36;100915.34;;;9.77;100.00
55490;BME280;44029;52.956;4.772;2022-12-24T07:20:03;100921.84;;;9.88;100.00
55490;BME280;44029;52.956;4.772;2022-12-24T07:22:28;100928.28;;;9.82;100.00
55490;BME280;44029;52.956;4.772;2022-12-24T07:24:54;100930.03;;;9.88;100.00
55490;BME280;44029;52.956;4.772;2022-12-24T07:27:20;100933.34;;;10.02;100.00
55490;BME280;44029;52.956;4.772;2022-12-24T07:29:46;100935.72;;;9.98;100.00
55490;BME280;44029;52.956;4.772;2022-12-24T07:32:11;100938.00;;;9.90;100.00
55490;BME280;44029;52.956;4.772;2022-12-24T07:34:37;100943.69;;;10.00;100.00
55490;BME280;44029;52.956;4.772;2022-12-24T07:37:04;100950.75;;;9.96;100.00
55490;BME280;44029;52.956;4.772;2022-12-24T07:39:29;100955.88;;;9.80;100.00
55490;BME280;44029;52.956;4.772;2022-12-24T07:41:54;100958.25;;;9.89;100.00
55490;BME280;44029;52.956;4.772;2022-12-24T07:44:20;100965.00;;;9.98;100.00
55490;BME280;44029;52.956;4.772;2022-12-24T07:46:45;100958.56;;;10.04;100.00
55490;BME280;44029;52.956;4.772;2022-12-24T07:49:10;100971.00;;;10.12;100.00
55490;BME280;44029;52.956;4.772;2022-12-24T07:51:36;100973.56;;;10.01;100.00
55490;BME280;44029;52.956;4.772;2022-12-24T07:54:01;100980.50;;;9.92;100.00
55490;BME280;44029;52.956;4.772;2022-12-24T07:56:29;100983.81;;;9.94;100.00
55490;BME280;44029;52.956;4.772;2022-12-24T07:58:54;100988.91;;;10.02;100.00
55490;BME280;44029;52.956;4.772;2022-12-24T08:01:19;100989.81;;;10.20;100.00
55490;BME280;44029;52.956;4.772;2022-12-24T08:03:45;100984.00;;;10.04;100.00
55490;BME280;44029;52.956;4.772;2022-12-24T08:06:10;100996.22;;;10.14;100.00
55490;BME280;44029;52.956;4.772;2022-12-24T08:08:36;100999.53;;;10.28;100.00
55490;BME280;44029;52.956;4.772;2022-12-24T08:11:04;101005.25;;;10.26;100.00
55490;BME280;44029;52.956;4.772;2022-12-24T08:13:30;101012.28;;;10.22;100.00
55490;BME280;44029;52.956;4.772;2022-12-24T08:15:56;101016.69;;;10.35;100.00
55490;BME280;44029;52.956;4.772;2022-12-24T08:18:21;101014.03;;;10.28;100.00
55490;BME280;44029;52.956;4.772;2022-12-24T08:20:47;101019.16;;;10.36;100.00
55490;BME280;44029;52.956;4.772;2022-12-24T08:23:12;101017.59;;;10.40;100.00
55490;BME280;44029;52.956;4.772;2022-12-24T08:25:42;101014.63;;;10.42;100.00
55490;BME280;44029;52.956;4.772;2022-12-24T08:28:07;101023.59;;;10.54;100.00
55490;BME280;44029;52.956;4.772;2022-12-24T08:30:33;101022.91;;;10.47;100.00
55490;BME280;44029;52.956;4.772;2022-12-24T08:32:58;101032.72;;;10.43;100.00
55490;BME280;44029;52.956;4.772;2022-12-24T08:35:24;101036.44;;;10.37;100.00
55490;BME280;44029;52.956;4.772;2022-12-24T08:37:49;101030.84;;;10.32;100.00
55490;BME280;44029;52.956;4.772;2022-12-24T08:40:14;101042.16;;;10.35;100.00
55490;BME280;44029;52.956;4.772;2022-12-24T08:42:40;101042.97;;;10.36;100.00
55490;BME280;44029;52.956;4.772;2022-12-24T08:45:06;101037.38;;;10.42;100.00
55490;BME280;44029;52.956;4.772;2022-12-24T08:47:31;101041.28;;;10.47;100.00
55490;BME280;44029;52.956;4.772;2022-12-24T08:49:56;101035.56;;;10.48;100.00
55490;BME280;44029;52.956;4.772;2022-12-24T08:52:22;101043.19;;;10.46;100.00
55490;BME280;44029;52.956;4.772;2022-12-24T08:54:47;101048.72;;;10.22;100.00
55490;BME280;44029;52.956;4.772;2022-12-24T08:57:12;101051.78;;;10.38;100.00
55490;BME280;44029;52.956;4.772;2022-12-24T08:59:38;101049.53;;;10.35;100.00
55490;BME280;44029;52.956;4.772;2022-12-24T09:02:04;101047.03;;;10.33;100.00
55490;BME280;44029;52.956;4.772;2022-12-24T09:04:29;101047.97;;;10.27;100.00
55490;BME280;44029;52.956;4.772;2022-12-24T09:06:55;101046.78;;;10.23;100.00
55490;BME280;44029;52.956;4.772;2022-12-24T09:09:20;101056.56;;;10.31;100.00
55490;BME280;44029;52.956;4.772;2022-12-24T09:11:46;101046.72;;;10.06;100.00
55490;BME280;44029;52.956;4.772;2022-12-24T09:14:12;101053.13;;;10.12;100.00
55490;BME280;44029;52.956;4.772;2022-12-24T09:16:37;101054.47;;;10.09;100.00
55490;BME280;44029;52.956;4.772;2022-12-24T09:19:03;101067.75;;;10.17;100.00
55490;BME280;44029;52.956;4.772;2022-12-24T09:21:28;101077.66;;;10.18;100.00
55490;BME280;44029;52.956;4.772;2022-12-24T09:23:53;101072.75;;;10.20;100.00
55490;BME280;44029;52.956;4.772;2022-12-24T09:26:22;101082.06;;;10.31;100.00
55490;BME280;44029;52.956;4.772;2022-12-24T09:28:48;101080.75;;;10.22;100.00
55490;BME280;44029;52.956;4.772;2022-12-24T09:31:14;101079.31;;;10.31;100.00
55490;BME280;44029;52.956;4.772;2022-12-24T09:33:42;101085.16;;;10.35;100.00
55490;BME280;44029;52.956;4.772;2022-12-24T09:36:08;101092.03;;;10.25;100.00
55490;BME280;44029;52.956;4.772;2022-12-24T09:38:34;101089.63;;;10.41;100.00
55490;BME280;44029;52.956;4.772;2022-12-24T09:41:01;101089.25;;;10.49;100.00
55490;BME280;44029;52.956;4.772;2022-12-24T09:43:29;101084.28;;;10.46;100.00
55490;BME280;44029;52.956;4.772;2022-12-24T09:48:24;101098.53;;;10.48;100.00
55490;BME280;44029;52.956;4.772;2022-12-24T09:51:04;101097.56;;;10.54;100.00
55490;BME280;44029;52.956;4.772;2022-12-24T09:53:39;101099.47;;;10.54;100.00
55490;BME280;44029;52.956;4.772;2022-12-24T09:56:12;101101.13;;;10.55;100.00
55490;BME280;44029;52.956;4.772;2022-12-24T09:58:42;101101.81;;;10.62;100.00
55490;BME280;44029;52.956;4.772;2022-12-24T10:01:13;101096.25;;;10.57;100.00
55490;BME280;44029;52.956;4.772;2022-12-24T10:03:39;101100.81;;;10.51;100.00
55490;BME280;44029;52.956;4.772;2022-12-24T10:06:29;101101.00;;;10.61;100.00
55490;BME280;44029;52.956;4.772;2022-12-24T10:11:54;101123.13;;;10.72;100.00
55490;BME280;44029;52.956;4.772;2022-12-24T10:14:53;101114.69;;;10.61;100.00
55490;BME280;44029;52.956;4.772;2022-12-24T10:25:23;101119.59;;;10.59;100.00
55490;BME280;44029;52.956;4.772;2022-12-24T10:27:53;101114.50;;;10.51;100.00
55490;BME280;44029;52.956;4.772;2022-12-24T10:30:21;101115.69;;;10.43;100.00
55490;BME280;44029;52.956;4.772;2022-12-24T10:32:49;101121.16;;;10.43;100.00
55490;BME280;44029;52.956;4.772;2022-12-24T10:37:42;101130.53;;;10.59;100.00
55490;BME280;44029;52.956;4.772;2022-12-24T10:42:57;101123.16;;;10.60;100.00
55490;BME280;44029;52.956;4.772;2022-12-24T10:45:26;101114.28;;;10.70;100.00
55490;BME280;44029;52.956;4.772;2022-12-24T10:47:57;101120.22;;;10.78;100.00
55490;BME280;44029;52.956;4.772;2022-12-24T10:50:36;101125.47;;;10.80;100.00
55490;BME280;44029;52.956;4.772;2022-12-24T10:53:13;101133.09;;;10.78;100.00
55490;BME280;44029;52.956;4.772;2022-12-24T10:55:41;101134.28;;;10.82;100.00
55490;BME280;44029;52.956;4.772;2022-12-24T10:58:14;101135.03;;;10.77;100.00
55490;BME280;44029;52.956;4.772;2022-12-24T11:00:40;101126.34;;;10.69;100.00
55490;BME280;44029;52.956;4.772;2022-12-24T11:05:35;101144.69;;;10.68;100.00
55490;BME280;44029;52.956;4.772;2022-12-24T11:08:03;101135.44;;;10.86;100.00
55490;BME280;44029;52.956;4.772;2022-12-24T11:10:29;101158.75;;;11.00;100.00
55490;BME280;44029;52.956;4.772;2022-12-24T11:12:56;101154.09;;;11.01;100.00
55490;BME280;44029;52.956;4.772;2022-12-24T11:15:26;101162.75;;;11.10;100.00
55490;BME280;44029;52.956;4.772;2022-12-24T11:18:04;101149.63;;;11.12;100.00
55490;BME280;44029;52.956;4.772;2022-12-24T11:20:37;101156.19;;;11.11;100.00
55490;BME280;44029;52.956;4.772;2022-12-24T11:23:03;101158.44;;;11.14;100.00
55490;BME280;44029;52.956;4.772;2022-12-24T11:25:31;101157.84;;;11.12;100.00
55490;BME280;44029;52.956;4.772;2022-12-24T11:31:05;101158.78;;;11.34;100.00
55490;BME280;44029;52.956;4.772;2022-12-24T11:33:45;101156.88;;;11.18;100.00
55490;BME280;44029;52.956;4.772;2022-12-24T11:36:11;101163.28;;;11.24;100.00
55490;BME280;44029;52.956;4.772;2022-12-24T11:38:37;101154.63;;;11.15;100.00
55490;BME280;44029;52.956;4.772;2022-12-24T11:41:11;101153.91;;;11.36;100.00
55490;BME280;44029;52.956;4.772;2022-12-24T11:43:49;101161.38;;;11.24;100.00
55490;BME280;44029;52.956;4.772;2022-12-24T11:49:12;101172.44;;;11.29;100.00
55490;BME280;44029;52.956;4.772;2022-12-24T11:51:40;101174.25;;;11.24;100.00
55490;BME280;44029;52.956;4.772;2022-12-24T11:54:33;101175.75;;;11.14;100.00
55490;BME280;44029;52.956;4.772;2022-12-24T11:57:02;101181.72;;;11.28;100.00
55490;BME280;44029;52.956;4.772;2022-12-24T12:01:57;101184.34;;;11.35;100.00
55490;BME280;44029;52.956;4.772;2022-12-24T12:04:27;101187.09;;;11.52;100.00
55490;BME280;44029;52.956;4.772;2022-12-24T12:06:56;101189.59;;;11.53;100.00
55490;BME280;44029;52.956;4.772;2022-12-24T12:09:28;101188.00;;;11.57;100.00
55490;BME280;44029;52.956;4.772;2022-12-24T12:12:04;101190.50;;;11.59;100.00
55490;BME280;44029;52.956;4.772;2022-12-24T12:14:42;101193.97;;;11.37;100.00
55490;BME280;44029;52.956;4.772;2022-12-24T12:17:25;101192.97;;;11.44;100.00
55490;BME280;44029;52.956;4.772;2022-12-24T12:19:58;101194.22;;;11.36;100.00
55490;BME280;44029;52.956;4.772;2022-12-24T12:25:01;101184.69;;;11.10;100.00
55490;BME280;44029;52.956;4.772;2022-12-24T12:27:38;101187.19;;;11.11;100.00
55490;BME280;44029;52.956;4.772;2022-12-24T12:30:16;101199.91;;;11.17;100.00
55490;BME280;44029;52.956;4.772;2022-12-24T12:32:55;101203.78;;;11.05;100.00
55490;BME280;44029;52.956;4.772;2022-12-24T12:35:38;101206.91;;;10.96;100.00
55490;BME280;44029;52.956;4.772;2022-12-24T12:38:10;101213.63;;;10.77;100.00
55490;BME280;44029;52.956;4.772;2022-12-24T12:49:41;101225.81;;;10.81;100.00
55490;BME280;44029;52.956;4.772;2022-12-24T12:57:21;101212.81;;;10.76;100.00
55490;BME280;44029;52.956;4.772;2022-12-24T12:59:59;101220.34;;;10.69;100.00
55490;BME280;44029;52.956;4.772;2022-12-24T13:02:49;101218.75;;;10.73;100.00
55490;BME280;44029;52.956;4.772;2022-12-24T13:08:11;101231.09;;;10.47;100.00
55490;BME280;44029;52.956;4.772;2022-12-24T13:10:51;101228.00;;;10.55;100.00
55490;BME280;44029;52.956;4.772;2022-12-24T13:21:30;101258.97;;;10.32;100.00
55490;BME280;44029;52.956;4.772;2022-12-24T13:24:12;101262.16;;;10.29;100.00
55490;BME280;44029;52.956;4.772;2022-12-24T13:26:40;101276.41;;;10.19;100.00
55490;BME280;44029;52.956;4.772;2022-12-24T13:35:02;101284.19;;;10.34;100.00
55490;BME280;44029;52.956;4.772;2022-12-24T13:37:33;101293.22;;;10.23;100.00
55490;BME280;44029;52.956;4.772;2022-12-24T13:50:49;101312.47;;;10.04;100.00
55490;BME280;44029;52.956;4.772;2022-12-24T13:56:08;101328.13;;;9.85;100.00
55490;BME280;44029;52.956;4.772;2022-12-24T13:58:37;101339.69;;;9.87;100.00
55490;BME280;44029;52.956;4.772;2022-12-24T14:01:15;101339.81;;;9.93;100.00
55490;BME280;44029;52.956;4.772;2022-12-24T14:03:49;101346.91;;;9.82;100.00
55490;BME280;44029;52.956;4.772;2022-12-24T14:06:26;101351.44;;;9.76;100.00
55490;BME280;44029;52.956;4.772;2022-12-24T14:08:55;101350.97;;;9.79;100.00
55490;BME280;44029;52.956;4.772;2022-12-24T14:11:24;101351.88;;;9.73;100.00
55490;BME280;44029;52.956;4.772;2022-12-24T14:16:18;101363.16;;;9.65;100.00
55490;BME280;44029;52.956;4.772;2022-12-24T14:19:09;101370.75;;;9.63;100.00
55490;BME280;44029;52.956;4.772;2022-12-24T14:21:42;101376.50;;;9.73;100.00
55490;BME280;44029;52.956;4.772;2022-12-24T14:24:15;101380.25;;;9.60;100.00
55490;BME280;44029;52.956;4.772;2022-12-24T14:26:48;101373.34;;;9.58;100.00
55490;BME280;44029;52.956;4.772;2022-12-24T14:29:21;101375.53;;;9.67;100.00
55490;BME280;44029;52.956;4.772;2022-12-24T14:31:54;101381.38;;;9.71;100.00
55490;BME280;44029;52.956;4.772;2022-12-24T14:34:19;101380.19;;;9.67;100.00
55490;BME280;44029;52.956;4.772;2022-12-24T14:36:47;101381.53;;;9.76;100.00